FIN5LA EFHK-ESSA
Flight info
| Callsign | FIN5LA |
|---|---|
| Flight time | N/A |
| Altitude | 28000 |
| Route | ADIVO4N ADIVO Y365 POGOK DCT RUNGA N872 XILAN XILAN5M |
| Aircraft | A321/M-SDE3FGHIRWY/LB1 |
Departure
| Time | 2026-04-24 10:32 |
|---|---|
| Airport | Helsinki Vantaa Airport (EFHK) |
Arrival
| Time | N/A |
|---|---|
| Airport | Stockholm-Arlanda Airport (ESSA) |
| Time | Latitude | Longitude | Altitude | Speed | Heading |
|---|---|---|---|---|---|
| 2026-04-24 10:30 | 60.33013 | 24.94160 | 203 ft | 0 kts | 230° |
| 2026-04-24 10:31 | 60.33009 | 24.94151 | 203 ft | 1 kts | 230° |
| 2026-04-24 10:31 | 60.33001 | 24.94131 | 203 ft | 2 kts | 230° |
| 2026-04-24 10:31 | 60.32939 | 24.93979 | 202 ft | 45 kts | 230° |
| 2026-04-24 10:31 | 60.32556 | 24.93089 | 192 ft | 119 kts | 228° |
| 2026-04-24 10:32 | 60.31817 | 24.91551 | 173 ft | 180 kts | 223° |
| 2026-04-24 10:32 | 60.30844 | 24.89893 | 768 ft | 185 kts | 226° |
| 2026-04-24 10:32 | 60.30074 | 24.87906 | 1322 ft | 174 kts | 251° |
| 2026-04-24 10:32 | 60.29910 | 24.85597 | 1698 ft | 164 kts | 289° |
| 2026-04-24 10:33 | 60.30324 | 24.83471 | 2025 ft | 167 kts | 300° |
| 2026-04-24 10:33 | 60.30855 | 24.81322 | 2271 ft | 178 kts | 301° |
| 2026-04-24 10:33 | 60.31414 | 24.78981 | 2528 ft | 191 kts | 298° |
| 2026-04-24 10:33 | 60.31760 | 24.76271 | 2773 ft | 208 kts | 281° |
| 2026-04-24 10:34 | 60.31771 | 24.73248 | 2939 ft | 229 kts | 273° |
| 2026-04-24 10:34 | 60.31696 | 24.69899 | 3210 ft | 246 kts | 272° |
| 2026-04-24 10:34 | 60.31600 | 24.66377 | 3575 ft | 259 kts | 271° |
| 2026-04-24 10:34 | 60.31501 | 24.62777 | 4181 ft | 262 kts | 271° |
| 2026-04-24 10:35 | 60.31403 | 24.59106 | 4842 ft | 263 kts | 271° |
| 2026-04-24 10:35 | 60.31310 | 24.55457 | 5486 ft | 264 kts | 272° |
| 2026-04-24 10:35 | 60.31216 | 24.51745 | 6111 ft | 266 kts | 272° |
| 2026-04-24 10:35 | 60.31121 | 24.48030 | 6716 ft | 268 kts | 272° |
| 2026-04-24 10:36 | 60.31024 | 24.44272 | 7329 ft | 270 kts | 272° |
| 2026-04-24 10:36 | 60.30924 | 24.40496 | 7946 ft | 271 kts | 273° |
| 2026-04-24 10:36 | 60.30824 | 24.36657 | 8558 ft | 272 kts | 273° |
| 2026-04-24 10:36 | 60.30724 | 24.32890 | 9132 ft | 274 kts | 272° |
| 2026-04-24 10:37 | 60.30620 | 24.29035 | 9706 ft | 275 kts | 272° |
| 2026-04-24 10:37 | 60.30517 | 24.25189 | 10203 ft | 280 kts | 273° |
| 2026-04-24 10:37 | 60.30413 | 24.21190 | 10460 ft | 293 kts | 273° |
| 2026-04-24 10:37 | 60.30300 | 24.17008 | 10693 ft | 306 kts | 273° |
| 2026-04-24 10:38 | 60.30180 | 24.12667 | 10931 ft | 318 kts | 272° |
| 2026-04-24 10:38 | 60.30053 | 24.08158 | 11201 ft | 329 kts | 272° |
| 2026-04-24 10:38 | 60.29917 | 24.03558 | 11668 ft | 332 kts | 272° |
| 2026-04-24 10:38 | 60.29706 | 23.98904 | 12180 ft | 336 kts | 269° |
| 2026-04-24 10:39 | 60.29334 | 23.94248 | 12681 ft | 341 kts | 265° |
| 2026-04-24 10:39 | 60.28842 | 23.89586 | 13137 ft | 344 kts | 265° |
| 2026-04-24 10:39 | 60.28331 | 23.84871 | 13585 ft | 347 kts | 264° |
| 2026-04-24 10:39 | 60.27814 | 23.80140 | 14049 ft | 349 kts | 265° |
| 2026-04-24 10:40 | 60.27295 | 23.75391 | 14536 ft | 350 kts | 265° |
| 2026-04-24 10:40 | 60.26767 | 23.70575 | 14984 ft | 352 kts | 265° |
| 2026-04-24 10:40 | 60.26241 | 23.65769 | 15402 ft | 355 kts | 265° |
| 2026-04-24 10:40 | 60.25706 | 23.60917 | 15830 ft | 357 kts | 265° |
| 2026-04-24 10:41 | 60.25169 | 23.56059 | 16248 ft | 359 kts | 265° |
| 2026-04-24 10:41 | 60.24621 | 23.51117 | 16669 ft | 361 kts | 265° |
| 2026-04-24 10:41 | 60.24073 | 23.46192 | 17083 ft | 363 kts | 265° |
| 2026-04-24 10:41 | 60.23521 | 23.41250 | 17483 ft | 365 kts | 265° |
| 2026-04-24 10:42 | 60.22964 | 23.36288 | 17874 ft | 367 kts | 265° |
| 2026-04-24 10:42 | 60.22391 | 23.31185 | 18239 ft | 369 kts | 265° |
| 2026-04-24 10:42 | 60.21823 | 23.26160 | 18601 ft | 372 kts | 265° |
| 2026-04-24 10:42 | 60.21251 | 23.21099 | 18985 ft | 373 kts | 265° |
| 2026-04-24 10:43 | 60.20672 | 23.16015 | 19368 ft | 375 kts | 265° |
| 2026-04-24 10:43 | 60.20089 | 23.10914 | 19731 ft | 376 kts | 264° |
| 2026-04-24 10:43 | 60.19498 | 23.05757 | 20119 ft | 377 kts | 264° |
| 2026-04-24 10:43 | 60.18913 | 23.00672 | 20484 ft | 379 kts | 264° |
| 2026-04-24 10:44 | 60.18318 | 22.95512 | 20828 ft | 381 kts | 264° |
| 2026-04-24 10:44 | 60.17720 | 22.90358 | 21142 ft | 383 kts | 264° |
| 2026-04-24 10:44 | 60.17112 | 22.85129 | 21441 ft | 386 kts | 264° |
| 2026-04-24 10:44 | 60.16499 | 22.79899 | 21770 ft | 388 kts | 264° |
| 2026-04-24 10:45 | 60.15881 | 22.74638 | 22112 ft | 389 kts | 264° |
| 2026-04-24 10:45 | 60.15265 | 22.69423 | 22425 ft | 390 kts | 264° |
| 2026-04-24 10:45 | 60.14638 | 22.64127 | 22719 ft | 393 kts | 264° |
| 2026-04-24 10:45 | 60.14007 | 22.58789 | 23022 ft | 394 kts | 264° |
| 2026-04-24 10:46 | 60.13370 | 22.53436 | 23326 ft | 396 kts | 264° |
| 2026-04-24 10:46 | 60.12730 | 22.48065 | 23630 ft | 397 kts | 263° |
| 2026-04-24 10:46 | 60.12090 | 22.42730 | 23921 ft | 399 kts | 263° |
| 2026-04-24 10:46 | 60.11436 | 22.37292 | 24198 ft | 401 kts | 263° |
| 2026-04-24 10:47 | 60.10783 | 22.31899 | 24465 ft | 403 kts | 262° |
| 2026-04-24 10:47 | 60.10120 | 22.26440 | 24742 ft | 405 kts | 262° |
| 2026-04-24 10:47 | 60.09456 | 22.21001 | 25020 ft | 406 kts | 262° |
| 2026-04-24 10:47 | 60.08782 | 22.15506 | 25299 ft | 408 kts | 262° |
| 2026-04-24 10:48 | 60.08107 | 22.10012 | 25562 ft | 410 kts | 262° |
| 2026-04-24 10:48 | 60.07429 | 22.04502 | 25833 ft | 411 kts | 262° |
| 2026-04-24 10:48 | 60.06738 | 21.98920 | 26114 ft | 412 kts | 262° |
| 2026-04-24 10:48 | 60.06051 | 21.93402 | 26379 ft | 414 kts | 262° |
| 2026-04-24 10:49 | 60.05351 | 21.87793 | 26632 ft | 415 kts | 262° |
| 2026-04-24 10:49 | 60.04647 | 21.82166 | 26863 ft | 417 kts | 262° |
| 2026-04-24 10:49 | 60.03944 | 21.76570 | 27083 ft | 419 kts | 262° |
| 2026-04-24 10:49 | 60.03239 | 21.70979 | 27317 ft | 420 kts | 261° |
| 2026-04-24 10:50 | 60.02515 | 21.65268 | 27543 ft | 422 kts | 261° |
| 2026-04-24 10:50 | 60.01794 | 21.59606 | 27743 ft | 424 kts | 261° |
| 2026-04-24 10:50 | 60.01070 | 21.53937 | 27865 ft | 425 kts | 261° |
| 2026-04-24 10:50 | 60.00333 | 21.48206 | 27869 ft | 424 kts | 261° |
| 2026-04-24 10:51 | 59.99605 | 21.42550 | 27874 ft | 425 kts | 261° |
| 2026-04-24 10:51 | 59.98867 | 21.36879 | 27876 ft | 425 kts | 261° |
| 2026-04-24 10:51 | 59.98088 | 21.31173 | 27880 ft | 426 kts | 259° |
| 2026-04-24 10:51 | 59.97298 | 21.25496 | 27882 ft | 426 kts | 259° |
| 2026-04-24 10:52 | 59.96500 | 21.19791 | 27881 ft | 426 kts | 259° |
| 2026-04-24 10:52 | 59.95701 | 21.14091 | 27884 ft | 427 kts | 259° |
| 2026-04-24 10:52 | 59.94910 | 21.08460 | 27886 ft | 427 kts | 259° |
| 2026-04-24 10:52 | 59.94102 | 21.02729 | 27889 ft | 427 kts | 259° |
| 2026-04-24 10:53 | 59.93299 | 20.97053 | 27894 ft | 426 kts | 259° |
| 2026-04-24 10:53 | 59.92498 | 20.91402 | 27900 ft | 426 kts | 259° |
| 2026-04-24 10:53 | 59.91690 | 20.85724 | 27903 ft | 426 kts | 259° |
| 2026-04-24 10:53 | 59.90888 | 20.80114 | 27902 ft | 426 kts | 259° |
| 2026-04-24 10:54 | 59.90076 | 20.74435 | 27905 ft | 426 kts | 259° |
| 2026-04-24 10:54 | 59.89260 | 20.68756 | 27904 ft | 426 kts | 259° |
| 2026-04-24 10:54 | 59.88444 | 20.63098 | 27906 ft | 426 kts | 259° |
| 2026-04-24 10:54 | 59.87636 | 20.57508 | 27910 ft | 426 kts | 259° |
| 2026-04-24 10:55 | 59.86812 | 20.51834 | 27914 ft | 426 kts | 259° |
| 2026-04-24 10:55 | 59.85997 | 20.46240 | 27917 ft | 426 kts | 259° |
| 2026-04-24 10:55 | 59.85173 | 20.40603 | 27920 ft | 426 kts | 258° |
| 2026-04-24 10:55 | 59.84341 | 20.34932 | 27922 ft | 426 kts | 257° |
| 2026-04-24 10:56 | 59.83490 | 20.29145 | 27920 ft | 425 kts | 258° |
| 2026-04-24 10:56 | 59.82641 | 20.23402 | 27921 ft | 425 kts | 257° |
| 2026-04-24 10:56 | 59.81795 | 20.17691 | 27917 ft | 425 kts | 257° |
| 2026-04-24 10:56 | 59.80963 | 20.12089 | 27918 ft | 425 kts | 257° |
| 2026-04-24 10:57 | 59.80127 | 20.06494 | 27920 ft | 425 kts | 257° |
| 2026-04-24 10:57 | 59.79289 | 20.00895 | 27920 ft | 425 kts | 257° |
| 2026-04-24 10:57 | 59.78432 | 19.95193 | 27921 ft | 425 kts | 257° |
| 2026-04-24 10:57 | 59.77571 | 19.89492 | 27922 ft | 425 kts | 257° |
| 2026-04-24 10:58 | 59.76712 | 19.83815 | 27930 ft | 425 kts | 257° |
| 2026-04-24 10:58 | 59.75864 | 19.78235 | 27931 ft | 425 kts | 257° |
| 2026-04-24 10:58 | 59.75015 | 19.72660 | 27930 ft | 425 kts | 257° |
| 2026-04-24 10:58 | 59.74206 | 19.67025 | 27931 ft | 425 kts | 259° |
| 2026-04-24 10:59 | 59.73933 | 19.65022 | 27931 ft | 425 kts | 259° |
| 2026-04-24 10:59 | 59.73666 | 19.63069 | 27891 ft | 426 kts | 259° |